createdAt,value
2023-06-04T00:02:15.902Z,13.33
2023-06-04T00:04:42.480Z,13.23
2023-06-04T00:07:08.897Z,13.14
2023-06-04T00:09:35.245Z,13.08
2023-06-04T00:12:01.691Z,13.03
2023-06-04T00:14:28.197Z,12.98
2023-06-04T00:16:54.599Z,12.93
2023-06-04T00:19:21.330Z,12.89
2023-06-04T00:21:47.687Z,12.83
2023-06-04T00:24:14.253Z,12.78
2023-06-04T00:26:40.863Z,12.73
2023-06-04T00:29:07.212Z,12.68
2023-06-04T00:31:33.724Z,12.63
2023-06-04T00:34:00.204Z,12.57
2023-06-04T00:36:26.553Z,12.53
2023-06-04T00:38:52.918Z,12.48
2023-06-04T00:41:19.241Z,12.45
2023-06-04T00:43:45.681Z,12.42
2023-06-04T00:46:13.212Z,12.37
2023-06-04T00:48:39.570Z,12.31
2023-06-04T00:51:06.869Z,12.26
2023-06-04T00:53:33.382Z,12.21
2023-06-04T00:55:59.802Z,12.17
2023-06-04T00:58:26.373Z,12.12
2023-06-04T01:00:56.050Z,12.07
2023-06-04T01:03:26.554Z,12.05
2023-06-04T01:06:26.950Z,11.99
2023-06-04T01:08:54.859Z,11.94
2023-06-04T01:11:38.994Z,11.87
2023-06-04T01:14:07.007Z,11.82
2023-06-04T01:16:42.063Z,11.78
2023-06-04T01:19:33.194Z,11.74
2023-06-04T01:22:10.290Z,11.68
2023-06-04T01:24:40.302Z,11.66
2023-06-04T01:27:07.201Z,11.60
2023-06-04T01:29:33.966Z,11.52
2023-06-04T01:32:00.741Z,11.47
2023-06-04T01:34:27.173Z,11.40
2023-06-04T01:36:53.503Z,11.34
2023-06-04T01:39:19.899Z,11.31
2023-06-04T01:41:46.225Z,11.25
2023-06-04T01:44:12.715Z,11.18
2023-06-04T01:46:39.067Z,11.18
2023-06-04T01:49:05.466Z,11.14
2023-06-04T01:51:31.905Z,11.13
2023-06-04T01:53:58.277Z,11.10
2023-06-04T01:56:24.639Z,11.05
2023-06-04T01:58:51.133Z,11.00
2023-06-04T02:01:17.508Z,11.00
2023-06-04T02:03:43.947Z,10.97
2023-06-04T02:06:10.525Z,10.90
2023-06-04T02:08:36.865Z,10.84
2023-06-04T02:11:03.286Z,10.76
2023-06-04T02:13:29.891Z,10.73
2023-06-04T02:15:56.254Z,10.70
2023-06-04T02:18:22.629Z,10.68
2023-06-04T02:20:50.577Z,10.69
2023-06-04T02:23:19.103Z,10.68
2023-06-04T02:25:46.483Z,10.62
2023-06-04T02:28:13.834Z,10.54
2023-06-04T02:30:40.408Z,10.48
2023-06-04T02:33:06.809Z,10.41
2023-06-04T02:35:33.216Z,10.34
2023-06-04T02:37:59.721Z,10.33
2023-06-04T02:40:26.529Z,10.34
2023-06-04T02:42:54.006Z,10.31
2023-06-04T02:45:20.598Z,10.24
2023-06-04T02:47:47.245Z,10.21
2023-06-04T02:50:15.070Z,10.21
2023-06-04T02:52:43.890Z,10.20
2023-06-04T02:55:11.321Z,10.18
2023-06-04T02:57:37.761Z,10.18
2023-06-04T03:00:05.024Z,10.14
2023-06-04T03:02:31.402Z,10.12
2023-06-04T03:04:57.746Z,10.10
2023-06-04T03:07:24.201Z,10.04
2023-06-04T03:09:51.034Z,10.01
2023-06-04T03:12:17.584Z,9.97
2023-06-04T03:14:43.903Z,9.96
2023-06-04T03:17:10.231Z,9.92
2023-06-04T03:19:38.028Z,9.84
2023-06-04T03:22:06.069Z,9.83
2023-06-04T03:24:37.551Z,9.84
2023-06-04T03:27:04.947Z,9.80
2023-06-04T03:29:32.474Z,9.77
2023-06-04T03:31:59.207Z,9.73
2023-06-04T03:34:25.544Z,9.74
2023-06-04T03:36:55.771Z,9.77
2023-06-04T03:39:22.490Z,9.78
2023-06-04T03:41:49.280Z,9.79
2023-06-04T03:44:16.910Z,9.80
2023-06-04T03:46:44.797Z,9.85
2023-06-04T03:49:11.869Z,9.94
2023-06-04T03:51:39.023Z,9.98
2023-06-04T03:54:05.667Z,10.06
2023-06-04T03:56:32.484Z,10.28
2023-06-04T03:58:59.056Z,10.69
2023-06-04T04:01:25.450Z,11.17
2023-06-04T04:03:52.434Z,11.71
2023-06-04T04:06:19.952Z,12.25
2023-06-04T04:08:46.230Z,12.76
2023-06-04T04:11:13.985Z,13.32
2023-06-04T04:13:40.602Z,13.76
2023-06-04T04:16:07.057Z,14.20
2023-06-04T04:18:37.402Z,14.63
2023-06-04T04:21:05.046Z,15.05
2023-06-04T04:23:32.277Z,15.41
2023-06-04T04:26:01.632Z,15.77
2023-06-04T04:28:28.020Z,16.12
2023-06-04T04:30:54.493Z,16.45
2023-06-04T04:33:20.896Z,16.79
2023-06-04T04:35:47.322Z,16.98
2023-06-04T04:38:13.766Z,17.07
2023-06-04T04:40:40.089Z,17.18
2023-06-04T04:43:06.467Z,16.95
2023-06-04T04:45:32.800Z,16.45
2023-06-04T04:47:59.170Z,15.80
2023-06-04T04:50:25.559Z,15.45
2023-06-04T04:52:51.988Z,15.04
2023-06-04T04:55:18.344Z,14.66
2023-06-04T04:57:44.701Z,14.28
2023-06-04T05:00:11.623Z,13.99
2023-06-04T05:02:38.029Z,13.70
2023-06-04T05:05:05.162Z,13.53
2023-06-04T05:07:31.587Z,13.43
2023-06-04T05:09:57.920Z,13.32
2023-06-04T05:12:26.557Z,13.19
2023-06-04T05:14:54.040Z,13.16
2023-06-04T05:17:20.422Z,13.12
2023-06-04T05:19:46.774Z,13.05
2023-06-04T05:22:13.148Z,12.98
2023-06-04T05:24:39.515Z,12.97
2023-06-04T05:27:05.933Z,13.00
2023-06-04T05:29:32.285Z,13.10
2023-06-04T05:31:58.690Z,13.20
2023-06-04T05:34:25.285Z,13.34
2023-06-04T05:36:51.615Z,13.39
2023-06-04T05:39:17.973Z,13.48
2023-06-04T05:41:44.306Z,13.61
2023-06-04T05:44:10.652Z,13.76
2023-06-04T05:46:36.996Z,13.88
2023-06-04T05:49:03.470Z,13.99
2023-06-04T05:51:29.846Z,14.17
2023-06-04T05:53:56.157Z,14.27
2023-06-04T05:56:22.477Z,14.36
2023-06-04T05:58:52.946Z,14.48
2023-06-04T06:01:19.353Z,14.58
2023-06-04T06:03:45.802Z,14.58
2023-06-04T06:06:12.163Z,14.63
2023-06-04T06:08:38.492Z,14.73
2023-06-04T06:11:05.732Z,14.87
2023-06-04T06:13:32.958Z,14.96
2023-06-04T06:15:59.338Z,15.05
2023-06-04T06:18:25.711Z,15.17
2023-06-04T06:20:52.023Z,15.34
2023-06-04T06:23:18.490Z,15.40
2023-06-04T06:25:44.996Z,15.48
2023-06-04T06:28:11.311Z,15.57
2023-06-04T06:30:37.614Z,15.63
2023-06-04T06:33:04.044Z,15.64
2023-06-04T06:35:30.397Z,15.68
2023-06-04T06:37:56.744Z,15.78
2023-06-04T06:40:23.238Z,15.89
2023-06-04T06:42:50.480Z,15.99
2023-06-04T06:45:16.764Z,16.06
2023-06-04T06:47:43.177Z,16.18
2023-06-04T06:50:09.740Z,16.33
2023-06-04T06:52:36.039Z,16.36
2023-06-04T06:55:02.471Z,16.42
2023-06-04T06:57:28.808Z,16.45
2023-06-04T06:59:55.118Z,16.56
2023-06-04T07:02:21.647Z,16.68
2023-06-04T07:04:48.491Z,16.74
2023-06-04T07:07:15.804Z,16.76
2023-06-04T07:09:44.303Z,16.77
2023-06-04T07:12:10.647Z,16.87
2023-06-04T07:14:36.973Z,16.97
2023-06-04T07:17:03.554Z,17.09
2023-06-04T07:19:29.956Z,17.09
2023-06-04T07:21:56.274Z,17.17
2023-06-04T07:24:23.016Z,17.23
2023-06-04T07:26:49.393Z,17.35
2023-06-04T07:29:15.824Z,17.45
2023-06-04T07:31:42.982Z,17.56
2023-06-04T07:34:09.253Z,17.64
2023-06-04T07:36:35.639Z,17.72
2023-06-04T07:39:02.009Z,17.84
2023-06-04T07:41:28.337Z,18.00
2023-06-04T07:43:54.674Z,18.14
2023-06-04T07:46:21.241Z,18.21
2023-06-04T07:48:47.684Z,18.24
2023-06-04T07:51:14.556Z,18.28
2023-06-04T07:53:41.704Z,18.35
2023-06-04T07:56:08.061Z,18.35
2023-06-04T07:58:34.381Z,18.33
2023-06-04T08:01:00.703Z,18.38
2023-06-04T08:03:27.171Z,18.50
2023-06-04T08:05:53.761Z,18.64
2023-06-04T08:08:20.140Z,18.73
2023-06-04T08:10:46.601Z,18.85
2023-06-04T08:13:12.949Z,18.93
2023-06-04T08:15:39.295Z,18.95
2023-06-04T08:18:05.781Z,18.91
2023-06-04T08:20:32.195Z,19.01
2023-06-04T08:22:58.634Z,19.15
2023-06-04T08:25:24.975Z,19.29
2023-06-04T08:27:51.313Z,19.47
2023-06-04T08:30:17.756Z,19.62
2023-06-04T08:32:44.392Z,19.75
2023-06-04T08:35:10.765Z,19.89
2023-06-04T08:37:37.256Z,20.02
2023-06-04T08:40:03.890Z,20.11
2023-06-04T08:42:32.107Z,20.20
2023-06-04T08:44:59.349Z,20.20
2023-06-04T08:47:26.515Z,20.05
2023-06-04T08:49:55.636Z,20.17
2023-06-04T08:52:22.148Z,20.18
2023-06-04T08:54:52.244Z,20.26
2023-06-04T08:57:19.908Z,20.40
2023-06-04T08:59:47.411Z,20.51
2023-06-04T09:02:15.517Z,20.63
2023-06-04T09:04:45.646Z,20.62
2023-06-04T09:07:14.113Z,20.53
2023-06-04T09:09:42.925Z,20.64
2023-06-04T09:12:22.533Z,20.58
2023-06-04T09:14:49.220Z,20.65
2023-06-04T09:17:15.537Z,20.78
2023-06-04T09:19:41.902Z,20.89
2023-06-04T09:22:08.301Z,21.07
2023-06-04T09:24:41.610Z,21.13
2023-06-04T09:27:15.356Z,21.10
2023-06-04T09:30:02.045Z,21.17
2023-06-04T09:32:31.250Z,21.07
2023-06-04T09:35:12.900Z,21.10
2023-06-04T09:37:44.126Z,21.08
2023-06-04T09:40:11.053Z,21.20
2023-06-04T09:42:45.125Z,21.32
2023-06-04T09:45:12.088Z,21.51
2023-06-04T09:47:42.381Z,21.50
2023-06-04T09:50:09.571Z,21.45
2023-06-04T09:52:36.018Z,21.52
2023-06-04T09:55:02.358Z,21.63
2023-06-04T09:57:30.295Z,21.80
2023-06-04T09:59:57.882Z,21.99
2023-06-04T10:02:28.072Z,22.15
2023-06-04T10:04:55.974Z,22.30
2023-06-04T10:07:24.629Z,22.41
2023-06-04T10:09:52.602Z,22.51
2023-06-04T10:12:26.542Z,22.54
2023-06-04T10:15:12.184Z,22.55
2023-06-04T10:17:38.765Z,22.54
2023-06-04T10:20:05.809Z,22.50
2023-06-04T10:22:32.948Z,22.47
2023-06-04T10:25:00.211Z,22.35
2023-06-04T10:27:26.742Z,22.14
2023-06-04T10:29:53.612Z,22.26
2023-06-04T10:32:20.450Z,22.25
2023-06-04T10:34:47.943Z,22.32
2023-06-04T10:37:21.984Z,22.48
2023-06-04T10:42:18.583Z,22.80
2023-06-04T10:44:49.882Z,22.86
2023-06-04T10:47:23.769Z,22.91
2023-06-04T10:49:55.285Z,23.03
2023-06-04T10:52:24.639Z,23.15
2023-06-04T10:54:51.008Z,23.21
2023-06-04T10:57:19.060Z,23.23
2023-06-04T10:59:55.862Z,23.26
2023-06-04T11:02:22.339Z,23.16
2023-06-04T11:05:00.094Z,23.15
2023-06-04T11:07:26.672Z,23.18
2023-06-04T11:09:53.337Z,23.20
2023-06-04T11:12:19.775Z,23.21
2023-06-04T11:14:59.601Z,23.26
2023-06-04T11:17:26.079Z,23.40
2023-06-04T11:19:52.451Z,23.49
2023-06-04T11:22:18.794Z,23.64
2023-06-04T11:24:45.378Z,23.60
2023-06-04T11:27:20.747Z,23.54
2023-06-04T11:29:54.889Z,23.53
2023-06-04T11:32:24.815Z,23.53
2023-06-04T11:34:51.356Z,23.54
2023-06-04T11:37:17.710Z,23.56
2023-06-04T11:39:44.043Z,23.51
2023-06-04T11:42:10.931Z,23.48
2023-06-04T11:44:37.226Z,23.56
2023-06-04T11:47:09.508Z,23.62
2023-06-04T11:49:37.244Z,23.54
2023-06-04T11:52:04.791Z,23.55
2023-06-04T11:54:31.275Z,23.59
2023-06-04T11:56:58.039Z,23.67
2023-06-04T11:59:24.611Z,23.74
2023-06-04T12:01:51.137Z,23.86
2023-06-04T12:04:19.641Z,23.84
2023-06-04T12:06:59.543Z,23.84
2023-06-04T12:09:29.812Z,23.73
2023-06-04T12:12:00.277Z,23.78
2023-06-04T12:14:29.301Z,23.85
2023-06-04T12:16:56.684Z,23.98
2023-06-04T12:19:23.443Z,24.10
2023-06-04T12:22:00.756Z,24.23
2023-06-04T12:24:27.242Z,24.38
2023-06-04T12:27:02.566Z,24.42
2023-06-04T12:29:29.169Z,24.44
2023-06-04T12:32:04.013Z,24.43
2023-06-04T12:34:30.688Z,24.43
2023-06-04T12:36:57.038Z,24.32
2023-06-04T12:39:23.495Z,24.40
2023-06-04T12:41:50.070Z,24.30
2023-06-04T12:44:16.444Z,24.33
2023-06-04T12:46:42.934Z,24.30
2023-06-04T12:49:09.413Z,24.16
2023-06-04T12:51:35.750Z,24.19
2023-06-04T12:54:02.124Z,24.21
2023-06-04T12:56:28.596Z,24.37
2023-06-04T12:58:54.949Z,24.37
2023-06-04T13:01:21.384Z,24.29
2023-06-04T13:03:47.898Z,24.21
2023-06-04T13:06:14.565Z,24.08
2023-06-04T13:08:41.079Z,24.07
2023-06-04T13:11:07.685Z,24.15
2023-06-04T13:13:34.299Z,24.25
2023-06-04T13:16:00.713Z,24.39
2023-06-04T13:18:27.335Z,24.39
2023-06-04T13:20:53.754Z,24.26
2023-06-04T13:23:20.162Z,24.29
2023-06-04T13:25:46.616Z,24.30
2023-06-04T13:28:12.995Z,24.33
2023-06-04T13:30:39.944Z,24.43
2023-06-04T13:33:07.106Z,24.58
2023-06-04T13:35:33.867Z,24.67
2023-06-04T13:38:00.273Z,24.60
2023-06-04T13:40:26.870Z,24.71
2023-06-04T13:42:53.194Z,24.64
2023-06-04T13:45:19.634Z,24.62
2023-06-04T13:47:46.275Z,24.64
2023-06-04T13:50:12.713Z,24.76
2023-06-04T13:52:39.133Z,24.76
2023-06-04T13:55:05.919Z,24.89
2023-06-04T13:57:32.193Z,24.85
2023-06-04T13:59:58.566Z,24.72
2023-06-04T14:02:25.179Z,24.65
2023-06-04T14:04:53.549Z,24.73
2023-06-04T14:07:20.480Z,24.79
2023-06-04T14:09:46.837Z,24.85
2023-06-04T14:12:13.278Z,24.92
2023-06-04T14:14:39.634Z,24.99
2023-06-04T14:17:06.754Z,25.09
2023-06-04T14:19:33.962Z,25.11
2023-06-04T14:22:00.322Z,25.12
2023-06-04T14:24:26.806Z,25.20
2023-06-04T14:26:53.146Z,25.27
2023-06-04T14:29:19.501Z,25.35
2023-06-04T14:31:45.894Z,25.45
2023-06-04T14:34:12.444Z,25.51
2023-06-04T14:36:38.789Z,25.36
2023-06-04T14:39:05.129Z,25.30
2023-06-04T14:41:31.484Z,25.26
2023-06-04T14:43:57.861Z,25.12
2023-06-04T14:46:24.209Z,25.06
2023-06-04T14:48:50.577Z,25.12
2023-06-04T14:51:16.979Z,25.24
2023-06-04T14:53:43.321Z,25.36
2023-06-04T14:56:09.761Z,25.38
2023-06-04T14:58:36.108Z,25.44
2023-06-04T15:01:02.610Z,25.45
2023-06-04T15:03:29.042Z,25.44
2023-06-04T15:06:03.519Z,25.46
2023-06-04T15:08:37.385Z,25.51
2023-06-04T15:11:03.814Z,25.67
2023-06-04T15:13:30.223Z,25.73
2023-06-04T15:15:56.582Z,25.78
2023-06-04T15:18:23.009Z,25.91
2023-06-04T15:20:49.443Z,26.07
2023-06-04T15:23:15.766Z,26.11
2023-06-04T15:25:42.066Z,26.24
2023-06-04T15:28:08.503Z,26.36
2023-06-04T15:30:34.938Z,26.33
2023-06-04T15:33:01.404Z,26.48
2023-06-04T15:35:28.016Z,26.51
2023-06-04T15:37:54.596Z,26.55
2023-06-04T15:40:21.071Z,26.53
2023-06-04T15:42:47.440Z,26.66
2023-06-04T15:45:14.118Z,26.78
2023-06-04T15:47:40.518Z,26.98
2023-06-04T15:50:07.528Z,27.03
2023-06-04T15:52:33.849Z,27.31
2023-06-04T15:55:00.186Z,27.46
2023-06-04T15:57:26.623Z,27.59
2023-06-04T15:59:53.025Z,27.96
2023-06-04T16:02:19.481Z,27.95
2023-06-04T16:04:45.842Z,27.92
2023-06-04T16:07:12.189Z,27.69
2023-06-04T16:09:38.632Z,27.74
2023-06-04T16:12:05.226Z,27.94
2023-06-04T16:14:31.617Z,28.10
2023-06-04T16:16:58.072Z,28.27
2023-06-04T16:19:24.471Z,28.69
2023-06-04T16:21:50.882Z,29.33
2023-06-04T16:24:17.499Z,29.97
2023-06-04T16:26:43.917Z,29.94
2023-06-04T16:29:10.236Z,30.48
2023-06-04T16:31:36.595Z,31.10
2023-06-04T16:34:03.289Z,31.52
2023-06-04T16:36:30.598Z,32.15
2023-06-04T16:38:57.820Z,32.80
2023-06-04T16:41:24.086Z,33.23
2023-06-04T16:43:50.468Z,33.75
2023-06-04T16:46:16.818Z,34.11
2023-06-04T16:48:43.256Z,34.67
2023-06-04T16:51:09.687Z,34.23
2023-06-04T16:53:36.027Z,34.02
2023-06-04T16:56:02.497Z,33.79
2023-06-04T16:58:28.785Z,33.80
2023-06-04T17:00:55.249Z,34.25
2023-06-04T17:03:21.902Z,34.42
2023-06-04T17:05:48.385Z,35.10
2023-06-04T17:08:14.713Z,34.82
2023-06-04T17:10:41.054Z,34.86
2023-06-04T17:13:07.441Z,35.01
2023-06-04T17:15:33.892Z,34.34
2023-06-04T17:18:00.292Z,33.47
2023-06-04T17:20:27.474Z,33.10
2023-06-04T17:22:53.876Z,32.46
2023-06-04T17:25:20.238Z,32.52
2023-06-04T17:27:46.589Z,33.00
2023-06-04T17:30:13.172Z,33.45
2023-06-04T17:32:39.552Z,33.44
2023-06-04T17:35:06.611Z,32.65
2023-06-04T17:37:32.954Z,32.05
2023-06-04T17:39:59.338Z,31.61
2023-06-04T17:42:25.706Z,31.48
2023-06-04T17:44:52.229Z,31.53
2023-06-04T17:47:18.664Z,31.25
2023-06-04T17:49:45.388Z,31.08
2023-06-04T17:52:11.760Z,31.13
2023-06-04T17:54:38.228Z,30.73
2023-06-04T17:57:04.808Z,30.74
2023-06-04T17:59:31.376Z,30.73
2023-06-04T18:01:57.761Z,30.82
2023-06-04T18:04:24.183Z,31.01
2023-06-04T18:06:50.724Z,31.03
2023-06-04T18:09:17.087Z,31.29
2023-06-04T18:11:43.428Z,31.28
2023-06-04T18:14:09.847Z,31.18
2023-06-04T18:16:36.410Z,31.02
2023-06-04T18:19:02.779Z,31.05
2023-06-04T18:21:29.173Z,31.31
2023-06-04T18:23:55.597Z,31.30
2023-06-04T18:26:22.021Z,31.07
2023-06-04T18:28:48.458Z,30.52
2023-06-04T18:31:14.961Z,30.28
2023-06-04T18:33:54.499Z,30.31
2023-06-04T18:36:21.008Z,30.40
2023-06-04T18:38:47.467Z,30.32
2023-06-04T18:41:14.496Z,30.08
2023-06-04T18:43:40.837Z,29.65
2023-06-04T18:46:07.489Z,29.06
2023-06-04T18:48:33.991Z,28.30
2023-06-04T18:51:00.350Z,27.65
2023-06-04T18:53:26.986Z,27.03
2023-06-04T18:55:53.311Z,26.50
2023-06-04T18:58:19.790Z,26.04
2023-06-04T19:00:46.206Z,25.57
2023-06-04T19:03:12.769Z,25.11
2023-06-04T19:05:39.115Z,24.71
2023-06-04T19:08:05.716Z,24.30
2023-06-04T19:10:32.149Z,23.94
2023-06-04T19:12:58.494Z,23.67
2023-06-04T19:15:25.032Z,23.43
2023-06-04T19:17:51.512Z,23.13
2023-06-04T19:20:18.039Z,22.86
2023-06-04T19:22:44.534Z,22.61
2023-06-04T19:25:10.946Z,22.36
2023-06-04T19:27:37.476Z,22.13
2023-06-04T19:30:04.100Z,21.95
2023-06-04T19:32:30.485Z,21.77
2023-06-04T19:34:56.986Z,21.61
2023-06-04T19:37:23.357Z,21.42
2023-06-04T19:39:49.824Z,21.27
2023-06-04T19:42:16.157Z,21.09
2023-06-04T19:44:42.537Z,20.95
2023-06-04T19:47:09.015Z,20.83
2023-06-04T19:49:35.394Z,20.73
2023-06-04T19:52:01.790Z,20.60
2023-06-04T19:54:28.146Z,20.50
2023-06-04T19:56:54.511Z,20.39
2023-06-04T19:59:20.925Z,20.31
2023-06-04T20:01:47.286Z,20.20
2023-06-04T20:04:13.850Z,20.10
2023-06-04T20:06:40.301Z,20.01
2023-06-04T20:09:06.763Z,19.92
2023-06-04T20:11:33.132Z,19.83
2023-06-04T20:13:59.688Z,19.75
2023-06-04T20:16:26.202Z,19.68
2023-06-04T20:18:52.763Z,19.63
2023-06-04T20:21:19.120Z,19.58
2023-06-04T20:23:45.500Z,19.54
2023-06-04T20:26:11.908Z,19.48
2023-06-04T20:28:38.236Z,19.44
2023-06-04T20:31:04.632Z,19.37
2023-06-04T20:33:31.075Z,19.32
2023-06-04T20:35:57.528Z,19.26
2023-06-04T20:38:23.856Z,19.19
2023-06-04T20:40:50.374Z,19.12
2023-06-04T20:43:16.818Z,19.05
2023-06-04T20:45:43.261Z,18.98
2023-06-04T20:48:09.874Z,18.96
2023-06-04T20:50:36.317Z,18.91
2023-06-04T20:53:02.699Z,18.87
2023-06-04T20:55:29.078Z,18.84
2023-06-04T20:57:55.433Z,18.81
2023-06-04T21:00:21.780Z,18.79
2023-06-04T21:02:48.269Z,18.73
2023-06-04T21:05:14.749Z,18.67
2023-06-04T21:07:41.095Z,18.63
2023-06-04T21:10:07.667Z,18.59
2023-06-04T21:12:34.003Z,18.55
2023-06-04T21:15:00.434Z,18.50
2023-06-04T21:17:26.861Z,18.42
2023-06-04T21:19:53.291Z,18.40
2023-06-04T21:22:19.666Z,18.32
2023-06-04T21:24:46.135Z,18.28
2023-06-04T21:27:12.626Z,18.19
2023-06-04T21:29:38.989Z,18.12
2023-06-04T21:32:05.850Z,18.03
2023-06-04T21:34:32.249Z,17.98
2023-06-04T21:36:58.604Z,17.94
2023-06-04T21:39:25.038Z,17.92
2023-06-04T21:41:51.388Z,17.86
2023-06-04T21:44:17.733Z,17.76
2023-06-04T21:46:44.524Z,17.72
2023-06-04T21:49:10.842Z,17.66
2023-06-04T21:51:39.932Z,17.59
2023-06-04T21:54:06.417Z,17.50
2023-06-04T21:56:32.738Z,17.40
2023-06-04T21:58:59.076Z,17.37
2023-06-04T22:01:25.476Z,17.34
2023-06-04T22:03:51.995Z,17.33
2023-06-04T22:06:18.479Z,17.30
2023-06-04T22:08:44.882Z,17.24
2023-06-04T22:11:11.565Z,17.20
2023-06-04T22:13:37.948Z,17.11
2023-06-04T22:16:05.319Z,17.08
2023-06-04T22:18:44.448Z,17.00
2023-06-04T22:21:18.119Z,16.98
2023-06-04T22:23:44.501Z,16.91
2023-06-04T22:26:15.869Z,16.87
2023-06-04T22:28:48.065Z,16.83
2023-06-04T22:31:14.419Z,16.79
2023-06-04T22:33:40.763Z,16.73
2023-06-04T22:36:07.811Z,16.69
2023-06-04T22:38:34.856Z,16.64
2023-06-04T22:41:01.293Z,16.61
2023-06-04T22:43:27.748Z,16.54
2023-06-04T22:45:54.149Z,16.50
2023-06-04T22:48:20.593Z,16.45
2023-06-04T22:50:47.013Z,16.41
2023-06-04T22:53:13.361Z,16.37
2023-06-04T22:55:39.844Z,16.32
2023-06-04T22:58:06.292Z,16.33
2023-06-04T23:00:32.657Z,16.32
2023-06-04T23:02:59.138Z,16.30
2023-06-04T23:05:25.549Z,16.26
2023-06-04T23:07:51.920Z,16.18
2023-06-04T23:10:18.254Z,16.08
2023-06-04T23:12:44.685Z,15.99
2023-06-04T23:15:20.841Z,15.88
2023-06-04T23:17:48.060Z,15.80
2023-06-04T23:20:14.686Z,15.70
2023-06-04T23:22:41.082Z,15.61
2023-06-04T23:25:07.998Z,15.56
2023-06-04T23:27:34.359Z,15.48
2023-06-04T23:30:01.036Z,15.40
2023-06-04T23:32:27.423Z,15.32
2023-06-04T23:34:53.852Z,15.24
2023-06-04T23:37:20.201Z,15.15
2023-06-04T23:39:46.578Z,15.00
2023-06-04T23:42:13.008Z,14.90
2023-06-04T23:44:39.436Z,14.85
2023-06-04T23:47:05.864Z,14.82
2023-06-04T23:49:32.304Z,14.80
2023-06-04T23:51:58.717Z,14.78
2023-06-04T23:54:25.067Z,14.76
2023-06-04T23:56:51.421Z,14.73
2023-06-04T23:59:18.116Z,14.69
